Time;durP1;ratioP1;P1;durP2;ratioP2;P2;SDS_P1;SDS_P2;PMS_P1;PMS_P2;Temp;Humidity;BMP_temperature;BMP_pressure;BME280_temperature;BME280_humidity;BME280_pressure;Samples;Min_cycle;Max_cycle;Signal;HPM_P1;HPM_P2
2023/11/28 00:00:20;;;;;;;2.83;0.10;;;22.00;47.00;22.60;99918.00;;;;5005367;28;20046;-52
2023/11/28 00:02:46;;;;;;;0.47;0.00;;;22.00;47.20;22.50;99912.00;;;;5017442;28;20044;-56
2023/11/28 00:05:12;;;;;;;0.60;0.10;;;21.90;47.80;22.50;99913.00;;;;5014575;28;20038;-54
2023/11/28 00:07:38;;;;;;;0.30;0.00;;;21.90;47.40;22.50;99926.00;;;;5014889;28;20025;-58
2023/11/28 00:10:04;;;;;;;0.10;0.00;;;21.90;47.40;22.40;99922.00;;;;5013435;28;20041;-55
2023/11/28 00:12:31;;;;;;;0.43;0.00;;;21.80;47.50;22.40;99923.00;;;;5012905;28;20509;-55
2023/11/28 00:14:56;;;;;;;0.57;0.00;;;21.80;47.50;22.40;99928.00;;;;5015339;28;20034;-55
2023/11/28 00:17:22;;;;;;;0.08;0.00;;;21.80;47.60;22.40;99930.00;;;;5014827;28;20044;-55
2023/11/28 00:19:48;;;;;;;6.10;0.00;;;21.80;47.70;22.40;99935.00;;;;5013572;28;20057;-55
2023/11/28 00:22:14;;;;;;;0.30;0.00;;;21.80;47.70;22.40;99934.00;;;;5014592;28;20112;-56
2023/11/28 00:24:40;;;;;;;3.15;0.00;;;21.70;47.60;22.30;99935.00;;;;5015092;28;20030;-54
2023/11/28 00:27:08;;;;;;;0.05;0.00;;;21.70;47.60;22.30;99936.00;;;;5013742;28;20108;-55
2023/11/28 00:29:34;;;;;;;1.15;0.00;;;21.70;47.60;22.30;99948.00;;;;4997315;28;20042;-54
2023/11/28 00:32:01;;;;;;;0.00;0.00;;;21.60;47.60;22.30;99935.00;;;;5018366;28;20040;-54
2023/11/28 00:34:27;;;;;;;0.00;0.00;;;21.60;47.60;22.30;99941.00;;;;5017382;28;20513;-46
2023/11/28 00:36:53;;;;;;;1.45;0.00;;;21.60;47.70;22.20;99942.00;;;;5017013;28;20038;-47
2023/11/28 00:39:19;;;;;;;0.00;0.00;;;21.60;47.70;22.20;99950.00;;;;5016202;28;20060;-47
2023/11/28 00:41:45;;;;;;;1.75;0.00;;;21.60;47.70;22.20;99950.00;;;;5008326;28;20041;-47
2023/11/28 00:44:11;;;;;;;0.63;0.00;;;21.60;47.80;22.20;99949.00;;;;5019466;28;20459;-46
2023/11/28 00:46:41;;;;;;;0.00;0.00;;;21.50;47.70;22.10;99955.00;;;;5008183;28;20030;-46
2023/11/28 00:49:12;;;;;;;1.55;0.00;;;21.50;47.90;22.10;99944.00;;;;5041134;28;20037;-47
2023/11/28 00:51:43;;;;;;;0.28;0.10;;;21.50;47.90;22.10;99944.00;;;;5016269;28;20049;-48
2023/11/28 00:54:10;;;;;;;0.15;0.10;;;21.50;48.00;22.00;99949.00;;;;5009158;28;20046;-52
2023/11/28 00:56:36;;;;;;;0.10;0.00;;;21.40;47.90;22.00;99950.00;;;;5015856;28;20052;-52
2023/11/28 00:59:04;;;;;;;0.20;0.10;;;21.40;47.90;22.00;99945.00;;;;5017574;28;20034;-56
2023/11/28 01:01:31;;;;;;;0.00;0.00;;;21.40;47.90;22.00;99942.00;;;;5017781;28;20041;-52
2023/11/28 01:03:57;;;;;;;0.32;0.17;;;21.30;47.90;21.90;99947.00;;;;5016533;28;21813;-53
2023/11/28 01:06:24;;;;;;;0.65;0.00;;;21.30;48.00;21.90;99952.00;;;;5017876;28;20034;-53
2023/11/28 01:08:50;;;;;;;0.40;0.10;;;21.30;48.10;21.90;99964.00;;;;5033751;28;20037;-51
2023/11/28 01:11:16;;;;;;;0.10;0.00;;;21.30;48.20;21.90;99963.00;;;;5016333;28;20049;-53
2023/11/28 01:13:42;;;;;;;0.00;0.00;;;21.30;48.60;21.90;99970.00;;;;5018760;28;20041;-55
2023/11/28 01:16:11;;;;;;;0.17;0.05;;;21.20;48.80;21.90;99971.00;;;;5017464;28;20048;-54
2023/11/28 01:18:37;;;;;;;0.57;0.00;;;21.20;49.00;21.90;99972.00;;;;5015675;28;20052;-53
2023/11/28 01:21:03;;;;;;;0.05;0.00;;;21.20;49.30;21.90;99975.00;;;;5000809;28;20398;-55
2023/11/28 01:23:29;;;;;;;0.15;0.10;;;21.20;49.50;21.90;99990.00;;;;5007003;28;20441;-55
2023/11/28 01:25:55;;;;;;;0.10;0.00;;;21.20;49.50;21.90;99992.00;;;;4999191;28;20038;-50
2023/11/28 01:28:21;;;;;;;0.95;0.00;;;21.20;49.60;21.90;99990.00;;;;5015456;28;20041;-55
2023/11/28 01:30:48;;;;;;;0.05;0.00;;;21.20;49.70;21.80;99991.00;;;;5017334;28;20425;-53
2023/11/28 01:33:14;;;;;;;0.03;0.00;;;21.20;49.70;21.80;99993.00;;;;5008176;28;20046;-54
2023/11/28 01:35:40;;;;;;;0.00;0.00;;;21.20;49.90;21.80;99997.00;;;;4990090;28;20034;-51
2023/11/28 01:38:06;;;;;;;0.15;0.00;;;21.10;50.00;21.80;99994.00;;;;5015847;28;20041;-54
2023/11/28 01:40:33;;;;;;;1.02;0.00;;;21.10;50.10;21.80;99999.00;;;;5015588;28;20033;-52
2023/11/28 01:43:00;;;;;;;0.88;0.00;;;21.10;50.20;21.80;99994.00;;;;5016603;28;20756;-54
2023/11/28 01:45:26;;;;;;;1.55;0.00;;;21.10;50.30;21.80;99999.00;;;;5023829;28;20127;-53
2023/11/28 01:47:53;;;;;;;0.00;0.00;;;21.10;50.50;21.80;100005.00;;;;5015860;28;20115;-53
2023/11/28 01:50:20;;;;;;;1.60;1.45;;;21.10;50.60;21.80;100000.00;;;;5006645;28;20044;-54
2023/11/28 01:52:48;;;;;;;0.15;0.15;;;21.10;50.80;21.80;100008.00;;;;5015135;28;20111;-55
2023/11/28 01:55:14;;;;;;;0.00;0.00;;;21.10;50.80;21.70;100013.00;;;;5015178;28;20538;-53
2023/11/28 01:57:40;;;;;;;0.00;0.00;;;21.10;51.00;21.70;100011.00;;;;5014679;28;20187;-55
2023/11/28 02:00:08;;;;;;;0.10;0.00;;;21.10;51.00;21.70;100012.00;;;;4982457;28;20042;-54
2023/11/28 02:02:41;;;;;;;0.75;0.00;;;21.00;51.20;21.70;100026.00;;;;5000128;28;20036;-54
2023/11/28 02:05:07;;;;;;;0.20;0.00;;;21.00;51.10;21.70;100021.00;;;;4998228;28;20037;-51
2023/11/28 02:07:33;;;;;;;0.40;0.00;;;21.00;51.30;21.70;100026.00;;;;5016862;28;20060;-54
2023/11/28 02:09:59;;;;;;;0.10;0.00;;;21.00;51.30;21.70;100029.00;;;;5014846;28;20789;-52
2023/11/28 02:12:26;;;;;;;0.20;0.10;;;21.10;51.50;21.70;100026.00;;;;5015313;28;20039;-56
2023/11/28 02:14:53;;;;;;;0.10;0.00;;;21.00;51.50;21.70;100032.00;;;;5006056;28;20037;-51
2023/11/28 02:17:19;;;;;;;0.03;0.00;;;21.00;51.60;21.70;100029.00;;;;5014763;28;20036;-53
2023/11/28 02:19:50;;;;;;;0.10;0.00;;;21.00;51.60;21.70;100031.00;;;;4996850;28;20526;-58
2023/11/28 02:22:17;;;;;;;0.10;0.00;;;21.00;51.70;21.60;100028.00;;;;5023203;28;20128;-51
2023/11/28 02:24:49;;;;;;;0.50;0.10;;;21.00;51.60;21.70;100043.00;;;;5015781;28;20068;-55
2023/11/28 02:27:15;;;;;;;0.10;0.00;;;21.00;51.70;21.60;100043.00;;;;5007319;28;20121;-54
2023/11/28 02:29:46;;;;;;;0.17;0.00;;;21.00;51.70;21.60;100043.00;;;;5014451;28;20046;-52
2023/11/28 02:32:12;;;;;;;0.08;0.00;;;21.00;51.80;21.60;100040.00;;;;5013793;28;20382;-56
2023/11/28 02:34:38;;;;;;;0.00;0.00;;;20.90;51.70;21.60;100037.00;;;;5015116;28;20046;-45
2023/11/28 02:37:07;;;;;;;0.00;0.00;;;20.90;51.80;21.60;100043.00;;;;5015564;28;20037;-46
2023/11/28 02:39:33;;;;;;;0.10;0.10;;;20.90;51.80;21.60;100048.00;;;;5015156;28;20038;-46
2023/11/28 02:41:59;;;;;;;0.00;0.00;;;20.90;51.70;21.60;100045.00;;;;5014315;28;20041;-45
2023/11/28 02:44:25;;;;;;;0.00;0.00;;;20.90;51.80;21.60;100040.00;;;;4998017;28;20498;-45
2023/11/28 02:46:51;;;;;;;0.10;0.10;;;20.90;51.90;21.60;100049.00;;;;4998478;28;20098;-45
2023/11/28 02:49:18;;;;;;;1.55;0.10;;;20.90;51.90;21.60;100050.00;;;;5014121;28;20083;-46
2023/11/28 02:51:44;;;;;;;0.30;0.00;;;20.90;51.90;21.60;100051.00;;;;5021723;28;20041;-46
2023/11/28 02:54:10;;;;;;;0.28;0.10;;;20.90;51.90;21.60;100056.00;;;;5013479;28;20045;-54
2023/11/28 02:56:36;;;;;;;0.28;0.00;;;20.90;51.80;21.60;100062.00;;;;5013727;28;20129;-54
2023/11/28 02:59:02;;;;;;;1.17;0.00;;;20.90;51.90;21.60;100063.00;;;;5015144;28;20038;-55
2023/11/28 03:01:28;;;;;;;0.00;0.00;;;20.90;51.90;21.60;100060.00;;;;5005600;28;20030;-56
2023/11/28 03:03:54;;;;;;;0.00;0.00;;;20.90;51.80;21.50;100061.00;;;;4981731;28;20037;-51
2023/11/28 03:06:21;;;;;;;0.28;0.10;;;20.90;51.80;21.50;100055.00;;;;5022195;28;20081;-56
2023/11/28 03:08:47;;;;;;;0.10;0.00;;;20.90;51.90;21.50;100058.00;;;;5015183;28;20791;-52
2023/11/28 03:11:14;;;;;;;0.10;0.00;;;20.80;51.70;21.50;100066.00;;;;4996551;28;20037;-52
2023/11/28 03:13:40;;;;;;;0.68;0.00;;;20.90;51.70;21.50;100066.00;;;;5014986;28;20041;-53
2023/11/28 03:16:06;;;;;;;2.78;0.43;;;20.80;51.50;21.50;100076.00;;;;5012776;28;20068;-55
2023/11/28 03:18:32;;;;;;;1.55;0.00;;;20.80;51.50;21.50;100074.00;;;;5014108;28;20037;-56
2023/11/28 03:20:58;;;;;;;0.10;0.00;;;20.80;51.50;21.50;100082.00;;;;5014726;28;20034;-55
2023/11/28 03:23:25;;;;;;;0.57;0.03;;;20.80;51.50;21.50;100084.00;;;;5010957;28;20123;-56
2023/11/28 03:25:50;;;;;;;0.00;0.00;;;20.80;51.40;21.50;100082.00;;;;5012714;28;20038;-54
2023/11/28 03:28:16;;;;;;;0.00;0.00;;;20.80;51.40;21.50;100085.00;;;;5014983;28;20175;-54
2023/11/28 03:30:43;;;;;;;0.10;0.00;;;20.80;51.40;21.50;100101.00;;;;5015837;28;20123;-56
2023/11/28 03:33:09;;;;;;;1.17;0.00;;;20.80;51.40;21.50;100097.00;;;;5013669;28;20126;-52
2023/11/28 03:35:35;;;;;;;0.10;0.00;;;20.80;51.50;21.50;100106.00;;;;5012285;28;20534;-53
2023/11/28 03:38:02;;;;;;;0.00;0.00;;;20.70;51.30;21.50;100113.00;;;;5006300;28;20037;-55
2023/11/28 03:40:28;;;;;;;1.50;0.00;;;20.80;51.40;21.40;100107.00;;;;5015481;28;20030;-52
2023/11/28 03:42:54;;;;;;;0.00;0.00;;;20.80;51.40;21.40;100108.00;;;;4964875;28;20049;-51
2023/11/28 03:45:21;;;;;;;0.00;0.00;;;20.70;51.30;21.40;100113.00;;;;5013640;28;20037;-53
2023/11/28 03:47:47;;;;;;;0.10;0.00;;;20.70;51.30;21.40;100118.00;;;;5013527;28;20048;-56
2023/11/28 03:50:13;;;;;;;0.20;0.03;;;20.70;51.20;21.40;100113.00;;;;5005854;28;20105;-52
2023/11/28 03:52:41;;;;;;;0.95;0.68;;;20.70;51.20;21.40;100127.00;;;;4997715;28;20141;-55
2023/11/28 03:55:09;;;;;;;0.00;0.00;;;20.70;51.20;21.40;100127.00;;;;5013862;28;20136;-53
2023/11/28 03:57:35;;;;;;;0.00;0.00;;;20.70;51.20;21.40;100129.00;;;;4999077;28;20033;-55
2023/11/28 04:00:03;;;;;;;0.00;0.00;;;20.70;51.10;21.40;100122.00;;;;5014188;28;20052;-54
2023/11/28 04:02:29;;;;;;;0.10;0.10;;;20.70;51.10;21.40;100122.00;;;;5014727;28;20030;-52
2023/11/28 04:04:55;;;;;;;0.80;0.00;;;20.70;51.10;21.40;100134.00;;;;5014842;28;20037;-52
2023/11/28 04:07:21;;;;;;;0.22;0.00;;;20.70;51.10;21.40;100147.00;;;;5033699;28;20037;-53
2023/11/28 04:09:47;;;;;;;3.60;0.00;;;20.70;51.00;21.40;100148.00;;;;5002177;28;20359;-53
2023/11/28 04:12:13;;;;;;;0.52;0.00;;;20.70;51.00;21.40;100150.00;;;;5018648;28;20033;-59
2023/11/28 04:14:40;;;;;;;0.40;0.00;;;20.60;50.90;21.40;100156.00;;;;5016821;28;20399;-53
2023/11/28 04:17:06;;;;;;;0.50;0.00;;;20.70;50.90;21.40;100163.00;;;;5010407;28;20060;-55
2023/11/28 04:19:32;;;;;;;0.20;0.00;;;20.60;50.80;21.30;100169.00;;;;5018415;28;20063;-53
2023/11/28 04:21:58;;;;;;;0.35;0.00;;;20.60;50.70;21.30;100164.00;;;;5016961;28;20037;-58
2023/11/28 04:24:24;;;;;;;0.40;0.38;;;20.70;50.80;21.30;100178.00;;;;5016914;28;20178;-52
2023/11/28 04:26:50;;;;;;;0.85;0.00;;;20.60;50.70;21.30;100170.00;;;;5018246;28;20037;-53
2023/11/28 04:29:19;;;;;;;0.08;0.00;;;20.60;50.70;21.30;100177.00;;;;5017055;28;20038;-53
2023/11/28 04:31:45;;;;;;;0.00;0.00;;;20.60;50.70;21.30;100180.00;;;;5025524;28;20091;-55
2023/11/28 04:34:11;;;;;;;0.00;0.00;;;20.60;50.70;21.30;100178.00;;;;5017245;28;20037;-47
2023/11/28 04:36:37;;;;;;;1.17;0.00;;;20.60;50.70;21.30;100191.00;;;;5017169;28;20042;-47
2023/11/28 04:39:05;;;;;;;0.17;0.00;;;20.60;50.60;21.30;100191.00;;;;5018169;28;20056;-46
2023/11/28 04:41:33;;;;;;;0.00;0.00;;;20.60;50.60;21.30;100188.00;;;;5018026;28;20525;-46
2023/11/28 04:44:00;;;;;;;0.20;0.00;;;20.60;50.50;21.30;100191.00;;;;5015646;28;20048;-47
2023/11/28 04:46:26;;;;;;;0.35;0.10;;;20.60;50.50;21.30;100187.00;;;;5032775;28;20037;-44
2023/11/28 04:48:52;;;;;;;0.10;0.00;;;20.60;50.50;21.30;100201.00;;;;5016903;28;20116;-45
2023/11/28 04:51:18;;;;;;;0.00;0.00;;;20.60;50.50;21.30;100208.00;;;;5032925;28;20034;-45
2023/11/28 04:53:44;;;;;;;0.32;0.00;;;20.60;50.40;21.30;100204.00;;;;4999251;28;20141;-54
2023/11/28 04:56:10;;;;;;;0.38;0.03;;;20.50;50.30;21.30;100212.00;;;;5008451;28;20044;-52
2023/11/28 04:58:36;;;;;;;0.68;0.10;;;20.60;50.40;21.30;100217.00;;;;4983161;28;20048;-54
2023/11/28 05:01:04;;;;;;;0.05;0.00;;;20.50;50.30;21.20;100224.00;;;;5016731;28;20438;-54
2023/11/28 05:03:30;;;;;;;0.20;0.00;;;20.50;50.20;21.20;100232.00;;;;5016427;28;20044;-52
2023/11/28 05:05:56;;;;;;;1.65;0.45;;;20.50;50.10;21.20;100220.00;;;;5031754;28;20490;-53
2023/11/28 05:08:22;;;;;;;2.00;0.00;;;20.50;50.10;21.20;100231.00;;;;5016753;28;20152;-52
2023/11/28 05:10:48;;;;;;;0.20;0.00;;;20.50;50.10;21.20;100231.00;;;;5019079;28;20121;-56
2023/11/28 05:13:14;;;;;;;0.10;0.00;;;20.50;50.10;21.20;100230.00;;;;5016478;28;20458;-46
2023/11/28 05:15:40;;;;;;;0.00;0.00;;;20.50;50.10;21.20;100240.00;;;;5008190;28;20577;-47
2023/11/28 05:18:06;;;;;;;0.50;0.10;;;20.50;50.10;21.20;100242.00;;;;5000172;28;20151;-45
2023/11/28 05:20:33;;;;;;;0.00;0.00;;;20.50;50.10;21.20;100252.00;;;;5015896;28;20033;-45
2023/11/28 05:23:01;;;;;;;0.10;0.00;;;20.50;50.00;21.20;100261.00;;;;5016438;28;20045;-44
2023/11/28 05:25:27;;;;;;;0.55;0.00;;;20.50;50.10;21.20;100265.00;;;;5007623;28;20136;-45
2023/11/28 05:27:57;;;;;;;1.73;0.43;;;20.50;50.00;21.20;100280.00;;;;5016251;28;20475;-47
2023/11/28 05:30:23;;;;;;;0.00;0.00;;;20.50;49.90;21.20;100279.00;;;;5015935;28;20047;-45
2023/11/28 05:32:49;;;;;;;0.00;0.00;;;20.40;49.80;21.10;100289.00;;;;5023987;28;20041;-45
2023/11/28 05:35:15;;;;;;;0.00;0.00;;;20.40;49.80;21.10;100292.00;;;;5033317;28;20103;-55
2023/11/28 05:37:41;;;;;;;0.10;0.00;;;20.40;49.80;21.10;100290.00;;;;4982723;28;20092;-54
2023/11/28 05:40:09;;;;;;;0.20;0.10;;;20.40;49.80;21.10;100302.00;;;;5016310;28;20669;-51
2023/11/28 05:42:35;;;;;;;0.10;0.10;;;20.40;49.80;21.10;100302.00;;;;4983743;28;20030;-56
2023/11/28 05:45:02;;;;;;;0.75;0.08;;;20.40;49.70;21.10;100309.00;;;;5017712;28;20546;-56
2023/11/28 05:47:28;;;;;;;0.00;0.00;;;20.40;49.70;21.10;100321.00;;;;5007638;28;20026;-54
2023/11/28 05:49:54;;;;;;;6.45;0.00;;;20.40;49.70;21.10;100325.00;;;;5000059;28;20045;-54
2023/11/28 05:52:21;;;;;;;0.30;0.00;;;20.40;49.70;21.10;100335.00;;;;4998757;28;20049;-54
2023/11/28 05:54:47;;;;;;;0.40;0.00;;;20.40;49.60;21.10;100342.00;;;;5016903;28;20756;-52
2023/11/28 05:57:13;;;;;;;0.47;0.00;;;20.40;49.60;21.10;100351.00;;;;5015322;28;20041;-50
2023/11/28 05:59:39;;;;;;;0.30;0.10;;;20.40;49.60;21.10;100345.00;;;;5023856;28;20061;-56
2023/11/28 06:02:05;;;;;;;1.27;0.00;;;20.40;49.60;21.10;100351.00;;;;5014890;28;20076;-51
2023/11/28 06:04:33;;;;;;;0.65;0.13;;;20.40;49.60;21.10;100360.00;;;;5031507;28;20038;-50
2023/11/28 06:07:02;;;;;;;1.75;0.30;;;20.30;49.50;21.10;100364.00;;;;5014838;28;20042;-54
2023/11/28 06:09:28;;;;;;;0.50;0.10;;;20.40;49.50;21.10;100370.00;;;;5022830;28;20115;-52
2023/11/28 06:11:55;;;;;;;0.52;0.10;;;20.40;49.50;21.10;100361.00;;;;5007476;28;20041;-53
2023/11/28 06:14:23;;;;;;;0.30;0.10;;;20.30;49.40;21.10;100369.00;;;;4998356;28;20057;-56
2023/11/28 06:16:50;;;;;;;0.10;0.10;;;20.30;49.40;21.10;100378.00;;;;5021734;28;20120;-50
2023/11/28 06:19:17;;;;;;;0.43;0.10;;;20.30;49.40;21.10;100388.00;;;;5016948;28;20037;-51
2023/11/28 06:21:46;;;;;;;1.58;0.10;;;20.30;49.30;21.10;100392.00;;;;4989636;28;20125;-50
2023/11/28 06:24:14;;;;;;;0.20;0.10;;;20.30;49.30;21.10;100397.00;;;;5016013;28;20893;-53
2023/11/28 06:26:40;;;;;;;0.22;0.10;;;20.30;49.30;21.10;100402.00;;;;4982880;28;20640;-50
2023/11/28 06:29:06;;;;;;;0.20;0.10;;;20.30;49.20;21.10;100408.00;;;;5021654;28;20037;-50
2023/11/28 06:31:32;;;;;;;0.65;0.10;;;20.30;49.20;21.10;100412.00;;;;5015189;28;20040;-50
2023/11/28 06:33:58;;;;;;;0.40;0.40;;;20.30;49.10;21.00;100415.00;;;;5014561;28;20107;-45
2023/11/28 06:36:24;;;;;;;0.20;0.10;;;20.30;49.10;21.00;100414.00;;;;4998857;28;20041;-47
2023/11/28 06:38:50;;;;;;;0.20;0.10;;;20.30;49.00;21.00;100425.00;;;;5005608;28;20470;-46
2023/11/28 06:41:16;;;;;;;0.57;0.20;;;20.30;49.00;21.00;100445.00;;;;5013534;28;20117;-46
2023/11/28 06:43:42;;;;;;;0.50;0.20;;;20.30;49.00;21.00;100448.00;;;;5014903;28;20026;-46
2023/11/28 06:46:09;;;;;;;0.30;0.10;;;20.30;49.00;21.00;100447.00;;;;5015279;28;20041;-45
2023/11/28 06:48:37;;;;;;;0.10;0.10;;;20.30;49.00;21.00;100443.00;;;;5021990;28;20199;-45
2023/11/28 06:51:03;;;;;;;1.02;0.10;;;20.30;48.90;21.00;100450.00;;;;5038811;28;20398;-46
2023/11/28 06:53:29;;;;;;;0.68;0.10;;;20.20;48.80;21.00;100448.00;;;;5013587;28;20160;-53
2023/11/28 06:55:55;;;;;;;1.08;0.45;;;20.20;48.80;21.00;100449.00;;;;5015073;28;20357;-54
2023/11/28 06:58:22;;;;;;;1.95;0.52;;;20.20;48.70;21.00;100458.00;;;;5013341;28;20049;-50
2023/11/28 07:00:48;;;;;;;2.83;0.50;;;20.30;48.70;21.00;100465.00;;;;5014388;28;20036;-51
2023/11/28 07:03:14;;;;;;;3.10;0.70;;;20.20;48.70;21.00;100466.00;;;;5016864;28;20033;-51
2023/11/28 07:05:40;;;;;;;3.58;1.38;;;20.20;48.60;21.00;100457.00;;;;5015616;28;20038;-50
2023/11/28 07:08:06;;;;;;;6.72;1.13;;;20.20;48.60;20.90;100463.00;;;;5013082;28;20442;-50
2023/11/28 07:10:33;;;;;;;5.18;0.75;;;20.20;48.50;21.00;100460.00;;;;5014320;28;20150;-52
2023/11/28 07:12:59;;;;;;;7.25;0.82;;;20.20;48.50;20.90;100464.00;;;;5015441;28;20066;-51
2023/11/28 07:15:25;;;;;;;4.32;0.63;;;20.20;48.50;20.90;100477.00;;;;5015379;28;20038;-45
2023/11/28 07:17:52;;;;;;;7.40;1.08;;;20.20;48.50;20.90;100497.00;;;;5014901;28;20126;-47
2023/11/28 07:20:19;;;;;;;2.70;0.52;;;20.20;48.50;20.90;100505.00;;;;5013323;28;20037;-48
2023/11/28 07:22:45;;;;;;;1.63;0.63;;;20.20;48.50;20.90;100504.00;;;;4996736;28;20038;-47
2023/11/28 07:25:14;;;;;;;3.30;0.73;;;20.20;48.40;20.90;100506.00;;;;5016286;28;20553;-45
2023/11/28 07:27:40;;;;;;;0.60;0.25;;;20.20;48.30;20.90;100509.00;;;;5015209;28;20029;-47
2023/11/28 07:30:07;;;;;;;2.80;0.25;;;20.20;48.90;20.90;100516.00;;;;5014929;28;20030;-45
2023/11/28 07:32:33;;;;;;;2.47;0.30;;;20.20;48.20;20.90;100517.00;;;;5014013;28;20041;-45
2023/11/28 07:34:59;;;;;;;0.85;0.25;;;20.20;48.20;20.90;100518.00;;;;5013765;28;20037;-51
2023/11/28 07:37:25;;;;;;;0.73;0.10;;;20.20;48.20;20.90;100525.00;;;;5029863;28;20557;-52
2023/11/28 07:39:51;;;;;;;0.55;0.10;;;20.20;48.20;20.90;100535.00;;;;5014143;28;20412;-53
2023/11/28 07:42:17;;;;;;;0.75;0.15;;;20.10;48.00;20.90;100530.00;;;;5015350;28;20740;-51
2023/11/28 07:44:45;;;;;;;3.45;0.95;;;20.20;48.10;20.90;100532.00;;;;5014792;28;20045;-54
2023/11/28 07:47:11;;;;;;;3.45;0.10;;;20.20;48.10;20.90;100536.00;;;;5014584;28;20049;-53
2023/11/28 07:49:37;;;;;;;0.88;0.00;;;20.20;48.10;20.90;100543.00;;;;5012043;28;20609;-53
2023/11/28 07:52:04;;;;;;;0.90;0.03;;;20.20;48.10;21.00;100547.00;;;;5011813;28;20071;-50
2023/11/28 07:54:30;;;;;;;0.73;0.10;;;20.20;48.20;21.10;100565.00;;;;5013684;28;20296;-49
2023/11/28 07:56:56;;;;;;;0.13;0.10;;;20.30;48.30;21.20;100561.00;;;;5014559;28;20502;-54
2023/11/28 07:59:22;;;;;;;1.55;0.00;;;20.40;48.50;21.50;100559.00;;;;4964755;28;20065;-59
2023/11/28 08:01:48;;;;;;;0.40;0.10;;;20.50;49.10;21.70;100563.00;;;;5014292;28;20029;-47
2023/11/28 08:04:14;;;;;;;0.10;0.00;;;20.70;48.50;21.90;100562.00;;;;5004686;28;20038;-44
2023/11/28 08:06:40;;;;;;;0.70;0.00;;;20.80;48.40;22.20;100565.00;;;;5013685;28;20111;-54
2023/11/28 08:09:08;;;;;;;0.10;0.00;;;21.00;48.30;22.40;100572.00;;;;4997381;28;20048;-46
2023/11/28 08:11:34;;;;;;;0.85;0.00;;;21.20;48.20;22.70;100574.00;;;;5014045;28;20491;-56
2023/11/28 08:14:00;;;;;;;0.00;0.00;;;21.40;48.00;22.90;100587.00;;;;5015500;28;20033;-63
2023/11/28 08:16:26;;;;;;;0.20;0.00;;;21.60;47.90;23.10;100587.00;;;;5015800;28;20053;-66
2023/11/28 08:18:52;;;;;;;0.35;0.00;;;21.80;47.70;23.40;100599.00;;;;5014103;28;20104;-60
2023/11/28 08:21:18;;;;;;;0.00;0.00;;;22.00;47.50;23.60;100605.00;;;;5012579;28;20042;-62
2023/11/28 08:23:45;;;;;;;0.45;0.00;;;22.20;47.30;23.70;100607.00;;;;5013100;28;20542;-64
2023/11/28 08:26:11;;;;;;;0.57;0.00;;;22.30;47.10;23.90;100603.00;;;;5015613;28;20057;-58
2023/11/28 08:28:37;;;;;;;0.03;0.00;;;22.50;46.90;24.10;100607.00;;;;5013544;28;20076;-62
2023/11/28 08:31:03;;;;;;;0.00;0.00;;;22.70;46.70;24.30;100615.00;;;;5016406;28;20030;-59
2023/11/28 08:33:29;;;;;;;0.00;0.00;;;22.90;46.60;24.40;100617.00;;;;5016442;28;20546;-56
2023/11/28 08:35:55;;;;;;;0.00;0.00;;;23.00;46.30;24.50;100626.00;;;;5013302;28;20048;-54
2023/11/28 08:38:21;;;;;;;0.22;0.00;;;23.20;46.20;24.70;100627.00;;;;5014544;28;20463;-58
2023/11/28 08:40:47;;;;;;;0.00;0.00;;;23.30;46.00;24.70;100624.00;;;;5014292;28;20029;-47
2023/11/28 08:43:13;;;;;;;0.05;0.00;;;23.40;45.80;24.70;100638.00;;;;5014001;28;20036;-47
2023/11/28 08:45:39;;;;;;;0.10;0.00;;;23.40;45.60;24.80;100641.00;;;;4996696;28;20048;-53
2023/11/28 08:48:05;;;;;;;0.60;0.00;;;23.50;45.60;24.80;100641.00;;;;5014556;28;20038;-66
2023/11/28 08:50:31;;;;;;;1.00;0.52;;;23.60;45.60;24.80;100656.00;;;;5012283;28;20068;-67
2023/11/28 08:52:57;;;;;;;0.08;0.00;;;23.60;45.40;24.90;100647.00;;;;5018605;28;20476;-54
2023/11/28 08:55:23;;;;;;;0.00;0.00;;;23.70;45.40;24.90;100657.00;;;;5016449;28;20029;-49
2023/11/28 08:57:49;;;;;;;0.22;0.00;;;23.70;45.20;25.00;100653.00;;;;5016762;28;20052;-48
2023/11/28 09:00:16;;;;;;;0.00;0.00;;;23.80;45.10;25.00;100653.00;;;;5024469;28;20076;-49
2023/11/28 09:02:44;;;;;;;1.23;0.00;;;23.80;45.00;25.00;100661.00;;;;5018119;28;20030;-54
2023/11/28 09:05:10;;;;;;;0.00;0.00;;;23.90;44.70;25.00;100675.00;;;;5017368;28;20037;-52
2023/11/28 09:07:37;;;;;;;0.22;0.00;;;23.90;44.50;24.90;100684.00;;;;5016951;28;20462;-52
2023/11/28 09:10:05;;;;;;;1.35;0.00;;;23.90;44.40;24.80;100682.00;;;;5014684;28;20073;-51
2023/11/28 09:12:31;;;;;;;1.55;0.00;;;23.80;44.20;24.70;100687.00;;;;5016799;28;20088;-56
2023/11/28 09:14:57;;;;;;;0.15;0.00;;;23.80;44.20;24.70;100689.00;;;;5017546;28;20598;-69
2023/11/28 09:17:23;;;;;;;0.40;0.00;;;23.80;44.10;24.60;100700.00;;;;5018701;28;20529;-73
2023/11/28 09:19:49;;;;;;;0.00;0.00;;;23.70;44.10;24.60;100691.00;;;;5018762;28;20095;-62
2023/11/28 09:22:15;;;;;;;0.10;0.00;;;23.70;44.10;24.50;100695.00;;;;5017919;28;20037;-68
2023/11/28 09:24:41;;;;;;;2.65;0.30;;;23.60;44.00;24.40;100708.00;;;;5017808;28;20034;-70
2023/11/28 09:27:07;;;;;;;0.30;0.00;;;23.60;43.90;24.40;100715.00;;;;5016781;28;20055;-68
2023/11/28 09:29:35;;;;;;;12.50;0.55;;;23.60;43.70;24.30;100713.00;;;;5017801;28;20558;-67
2023/11/28 09:32:02;;;;;;;4.88;0.10;;;23.50;43.70;24.20;100721.00;;;;5016777;28;20491;-68
2023/11/28 09:34:28;;;;;;;1.45;0.00;;;23.40;43.50;24.10;100724.00;;;;5016162;28;20059;-52
2023/11/28 09:36:55;;;;;;;2.28;0.00;;;23.30;43.50;24.00;100722.00;;;;5015664;28;20357;-51
2023/11/28 09:39:21;;;;;;;1.90;0.00;;;23.30;43.50;23.90;100731.00;;;;5024063;28;20083;-53
2023/11/28 09:41:49;;;;;;;7.93;0.52;;;23.20;43.40;23.80;100738.00;;;;5016657;28;20025;-56
2023/11/28 09:44:16;;;;;;;6.75;0.43;;;23.20;43.40;23.70;100740.00;;;;5006028;28;20037;-55
2023/11/28 09:46:48;;;;;;;0.63;0.10;;;23.10;43.40;23.60;100738.00;;;;5017362;28;20128;-52
2023/11/28 09:49:18;;;;;;;7.55;0.15;;;23.00;43.40;23.60;100740.00;;;;5014581;28;20180;-51
2023/11/28 09:51:46;;;;;;;1.67;0.40;;;23.00;43.40;23.50;100744.00;;;;5016358;28;20042;-53
2023/11/28 09:54:16;;;;;;;4.63;0.20;;;22.90;43.30;23.50;100755.00;;;;5023175;28;20034;-52
2023/11/28 09:56:46;;;;;;;3.45;0.20;;;22.80;43.20;23.40;100751.00;;;;5016077;28;20038;-52
2023/11/28 09:59:15;;;;;;;8.77;0.52;;;22.70;43.20;23.30;100756.00;;;;5015221;28;20679;-52
2023/11/28 10:01:45;;;;;;;25.63;0.73;;;22.70;43.20;23.30;100762.00;;;;5016503;28;20040;-51
2023/11/28 10:04:11;;;;;;;15.48;1.17;;;22.60;43.10;23.20;100766.00;;;;5015441;28;20095;-50
2023/11/28 10:06:46;;;;;;;15.98;0.73;;;22.60;43.30;23.20;100778.00;;;;5016643;28;20630;-53
2023/11/28 10:09:15;;;;;;;14.23;1.60;;;22.50;43.10;23.10;100779.00;;;;5007590;28;20509;-55
2023/11/28 10:11:43;;;;;;;15.32;1.23;;;22.40;43.20;23.10;100786.00;;;;5016422;28;20044;-54
2023/11/28 10:14:09;;;;;;;20.40;1.33;;;22.50;43.20;23.00;100780.00;;;;5015389;28;20126;-68
2023/11/28 10:16:47;;;;;;;13.93;1.27;;;22.30;43.10;23.00;100780.00;;;;5015475;28;20029;-68
2023/11/28 10:19:13;;;;;;;13.60;2.00;;;22.30;43.20;23.00;100778.00;;;;5016494;28;20037;-68
2023/11/28 10:21:40;;;;;;;12.00;1.15;;;22.30;43.30;22.90;100771.00;;;;5014782;28;20036;-68
2023/11/28 10:24:09;;;;;;;2.20;0.47;;;22.20;43.10;22.90;100775.00;;;;5015456;28;20042;-68
2023/11/28 10:26:37;;;;;;;4.13;0.28;;;22.20;43.10;22.80;100782.00;;;;5033222;28;20042;-68
2023/11/28 10:29:05;;;;;;;7.53;0.50;;;22.10;43.20;22.80;100779.00;;;;5015228;28;20550;-68
2023/11/28 10:31:41;;;;;;;5.07;0.55;;;22.10;43.30;22.80;100787.00;;;;5017980;28;20064;-68
2023/11/28 10:34:10;;;;;;;6.38;0.73;;;22.10;43.20;22.70;100785.00;;;;5014848;28;20033;-57
2023/11/28 10:36:43;;;;;;;3.22;0.10;;;22.10;43.30;22.70;100785.00;;;;5022103;28;20041;-55
2023/11/28 10:39:13;;;;;;;4.68;0.43;;;22.00;43.10;22.70;100790.00;;;;5014562;28;20128;-53
2023/11/28 10:41:41;;;;;;;1.15;0.40;;;22.00;43.10;22.70;100789.00;;;;5015665;28;20078;-53
2023/11/28 10:44:07;;;;;;;1.95;0.20;;;21.90;43.00;22.60;100793.00;;;;5031429;28;20390;-51